Time;durP1;ratioP1;P1;durP2;ratioP2;P2;SDS_P1;SDS_P2;PMS_P1;PMS_P2;Temp;Humidity;BMP_temperature;BMP_pressure;BME280_temperature;BME280_humidity;BME280_pressure;Samples;Min_cycle;Max_cycle;Signal;HPM_P1;HPM_P2
2023/09/19 00:01:37;;;;;;;12.70;4.13;;;;;;;-147.65;100.00;57646.63;10488598;28;20085;-79
2023/09/19 00:06:38;;;;;;;10.77;3.47;;;;;;;-147.65;100.00;57646.63;10461113;28;20085;-79
2023/09/19 00:11:39;;;;;;;11.80;2.70;;;;;;;-147.65;100.00;57646.63;10431863;28;20048;-79
2023/09/19 00:16:41;;;;;;;14.75;3.10;;;;;;;-147.65;100.00;57646.63;10446867;28;20033;-79
2023/09/19 00:21:41;;;;;;;15.20;4.35;;;;;;;-147.65;100.00;57646.63;10478456;28;20045;-79
2023/09/19 00:26:43;;;;;;;9.70;3.28;;;;;;;-147.65;100.00;57646.63;10443369;28;20060;-81
2023/09/19 00:31:44;;;;;;;10.40;3.67;;;;;;;-147.65;100.00;57646.63;10467386;28;20393;-79
2023/09/19 00:36:45;;;;;;;15.23;3.65;;;;;;;-147.65;100.00;57646.63;10454004;28;20055;-81
2023/09/19 00:41:45;;;;;;;14.63;5.90;;;;;;;-147.65;100.00;57646.63;10464296;28;20274;-79
2023/09/19 00:46:49;;;;;;;11.23;3.50;;;;;;;-147.65;100.00;57646.63;10430132;28;20033;-80
2023/09/19 00:51:49;;;;;;;14.02;6.15;;;;;;;-147.65;100.00;57646.63;10440534;28;20037;-81
2023/09/19 00:56:50;;;;;;;17.92;4.45;;;;;;;-147.65;100.00;57646.63;10443609;28;20384;-78
2023/09/19 01:01:54;;;;;;;9.35;2.75;;;;;;;-147.65;100.00;57646.63;10448910;28;20540;-79
2023/09/19 01:06:54;;;;;;;18.23;4.50;;;;;;;-147.65;100.00;57646.63;10435607;28;20044;-78
2023/09/19 01:11:58;;;;;;;18.00;4.10;;;;;;;-147.65;100.00;57646.63;10429656;28;20037;-78
2023/09/19 01:17:22;;;;;;;20.48;4.65;;;;;;;-147.65;100.00;57646.63;10425002;28;20049;-78
2023/09/19 01:22:45;;;;;;;10.68;2.97;;;;;;;-147.65;100.00;57646.63;10444379;28;20033;-79
2023/09/19 01:28:01;;;;;;;18.52;5.38;;;;;;;-147.65;100.00;57646.63;10473009;28;20045;-80
2023/09/19 01:33:01;;;;;;;20.23;5.57;;;;;;;-147.65;100.00;57646.63;10443040;28;20397;-80
2023/09/19 01:38:02;;;;;;;16.42;3.78;;;;;;;-147.65;100.00;57646.63;10458452;28;20073;-80
2023/09/19 01:43:03;;;;;;;10.73;3.50;;;;;;;-147.65;100.00;57646.63;10477363;28;20036;-80
2023/09/19 01:48:18;;;;;;;6.30;2.42;;;;;;;-147.65;100.00;57646.63;10430287;28;20042;-79
2023/09/19 01:53:24;;;;;;;10.23;3.10;;;;;;;-147.65;100.00;57646.63;10439866;28;20484;-80
2023/09/19 01:58:40;;;;;;;14.55;3.95;;;;;;;-147.65;100.00;57646.63;10496877;28;20036;-79
2023/09/19 02:03:40;;;;;;;12.90;3.40;;;;;;;-147.65;100.00;57646.63;10461534;28;20520;-80
2023/09/19 02:08:41;;;;;;;13.48;3.75;;;;;;;-147.65;100.00;57646.63;10450481;28;20053;-79
2023/09/19 02:13:41;;;;;;;9.80;3.47;;;;;;;-147.65;100.00;57646.63;10468028;28;20045;-79
2023/09/19 02:18:42;;;;;;;8.10;4.15;;;;;;;-147.65;100.00;57646.63;10481256;28;20524;-78
2023/09/19 02:23:44;;;;;;;11.82;3.15;;;;;;;-147.65;100.00;57646.63;10478434;28;20048;-79
2023/09/19 02:28:45;;;;;;;13.27;3.75;;;;;;;-147.65;100.00;57646.63;10430308;28;20048;-78
2023/09/19 02:33:46;;;;;;;13.90;3.35;;;;;;;-147.65;100.00;57646.63;10457161;28;20041;-82
2023/09/19 02:38:46;;;;;;;10.77;3.22;;;;;;;-147.65;100.00;57646.63;10464699;28;20110;-79
2023/09/19 02:43:47;;;;;;;31.83;6.75;;;;;;;-147.65;100.00;57646.63;10428455;28;20119;-79
2023/09/19 02:48:47;;;;;;;12.15;3.30;;;;;;;-147.65;100.00;57646.63;10438968;28;20040;-81
2023/09/19 02:53:49;;;;;;;7.82;3.50;;;;;;;-147.65;100.00;57646.63;10438332;28;20033;-80
2023/09/19 02:58:49;;;;;;;8.00;3.15;;;;;;;-147.65;100.00;57646.63;10440436;28;20072;-78
2023/09/19 03:03:50;;;;;;;12.05;2.88;;;;;;;-147.65;100.00;57646.63;10453366;28;20033;-78
2023/09/19 03:08:52;;;;;;;10.23;3.47;;;;;;;-147.65;100.00;57646.63;10454348;28;20074;-80
2023/09/19 03:13:53;;;;;;;7.13;2.63;;;;;;;-147.65;100.00;57646.63;10399861;28;20398;-80
2023/09/19 03:18:53;;;;;;;20.60;4.32;;;;;;;-147.65;100.00;57646.63;10416215;28;20036;-79
2023/09/19 03:23:54;;;;;;;10.13;3.92;;;;;;;-147.65;100.00;57646.63;10479615;28;20043;-80
2023/09/19 03:28:54;;;;;;;13.85;3.58;;;;;;;-147.65;100.00;57646.63;10447339;28;20041;-78
2023/09/19 03:33:55;;;;;;;8.60;2.53;;;;;;;-147.65;100.00;57646.63;10407120;28;20111;-78
2023/09/19 03:38:56;;;;;;;14.23;3.10;;;;;;;-147.65;100.00;57646.63;10421603;28;20037;-79
2023/09/19 03:43:56;;;;;;;1999.90;999.90;;;;;;;-147.65;100.00;57646.63;10406138;28;20047;-78
2023/09/19 03:48:57;;;;;;;1999.90;999.90;;;;;;;-147.65;100.00;57646.63;10419994;28;20045;-79
2023/09/19 03:53:57;;;;;;;14.93;4.53;;;;;;;-147.65;100.00;57646.63;10443182;28;20106;-79
2023/09/19 03:58:58;;;;;;;5.00;1.60;;;;;;;-147.65;100.00;57646.63;10450195;28;20037;-79
2023/09/19 04:04:07;;;;;;;3.80;1.20;;;;;;;-147.65;100.00;57646.63;10465147;28;20041;-78
2023/09/19 04:09:08;;;;;;;5.78;1.73;;;;;;;-147.65;100.00;57646.63;10432537;28;20044;-79
2023/09/19 04:14:09;;;;;;;9.05;1.45;;;;;;;-147.65;100.00;57646.63;10454541;28;20096;-79
2023/09/19 04:19:09;;;;;;;12.23;2.22;;;;;;;-147.65;100.00;57646.63;10480318;28;20120;-79
2023/09/19 04:24:10;;;;;;;4.15;2.45;;;;;;;-147.65;100.00;57646.63;10432482;28;20102;-78
2023/09/19 04:29:11;;;;;;;8.48;1.60;;;;;;;-147.65;100.00;57646.63;10472034;28;20040;-79
2023/09/19 04:34:18;;;;;;;6.05;1.65;;;;;;;-147.65;100.00;57646.63;10457208;28;20061;-78
2023/09/19 04:39:18;;;;;;;4.70;1.48;;;;;;;-147.65;100.00;57646.63;10440981;28;20045;-79
2023/09/19 04:44:19;;;;;;;16.70;3.25;;;;;;;-147.65;100.00;57646.63;10426175;28;20045;-79
2023/09/19 04:49:19;;;;;;;6.63;2.75;;;;;;;-147.65;100.00;57646.63;10474724;28;20044;-77
2023/09/19 04:54:20;;;;;;;4.05;1.83;;;;;;;-147.65;100.00;57646.63;10476009;28;20123;-77
2023/09/19 04:59:20;;;;;;;20.45;3.33;;;;;;;-147.65;100.00;57646.63;10484318;28;20044;-78
2023/09/19 05:04:21;;;;;;;7.05;2.22;;;;;;;-147.65;100.00;57646.63;10447706;28;20037;-76
2023/09/19 05:09:22;;;;;;;9.60;2.67;;;;;;;-147.65;100.00;57646.63;10431872;28;20536;-78
2023/09/19 05:14:23;;;;;;;2.88;1.55;;;;;;;-147.65;100.00;57646.63;10444826;28;20054;-78
2023/09/19 05:19:23;;;;;;;10.18;2.22;;;;;;;-147.65;100.00;57646.63;10467207;28;20044;-78
2023/09/19 05:24:26;;;;;;;7.95;2.78;;;;;;;-147.65;100.00;57646.63;10456651;28;20048;-80
2023/09/19 05:29:26;;;;;;;5.65;2.63;;;;;;;-147.65;100.00;57646.63;10442712;28;20122;-78
2023/09/19 05:34:30;;;;;;;11.45;1.58;;;;;;;-147.65;100.00;57646.63;10422434;28;20175;-81
2023/09/19 05:39:31;;;;;;;4.82;2.15;;;;;;;-147.65;100.00;57646.63;10381833;28;20120;-77
2023/09/19 05:44:33;;;;;;;9.70;4.37;;;;;;;-147.65;100.00;57646.63;10442867;28;20029;-77
2023/09/19 05:49:33;;;;;;;4.67;1.60;;;;;;;-147.65;100.00;57646.63;10435963;28;20120;-78
2023/09/19 05:54:34;;;;;;;16.42;15.35;;;;;;;-147.65;100.00;57646.63;10460297;28;20040;-77
2023/09/19 05:59:39;;;;;;;32.72;29.60;;;;;;;-147.65;100.00;57646.63;10444501;28;20420;-78
2023/09/19 06:04:40;;;;;;;14.80;2.55;;;;;;;-147.65;100.00;57646.63;10428697;28;20041;-77
2023/09/19 06:09:41;;;;;;;11.27;4.00;;;;;;;-147.65;100.00;57646.63;10478478;28;20041;-78
2023/09/19 06:14:41;;;;;;;9.65;3.28;;;;;;;-147.65;100.00;57646.63;10471621;28;20036;-79
2023/09/19 06:19:46;;;;;;;7.35;2.33;;;;;;;-147.65;100.00;57646.63;10406011;28;20044;-80
2023/09/19 06:24:46;;;;;;;85.90;80.90;;;;;;;-147.65;100.00;57646.63;10456488;28;20493;-80
2023/09/19 06:29:47;;;;;;;10.48;4.38;;;;;;;-147.65;100.00;57646.63;10428698;28;20048;-80
2023/09/19 06:34:54;;;;;;;6.30;3.13;;;;;;;-147.65;100.00;57646.63;10461956;28;20499;-82
2023/09/19 06:39:57;;;;;;;176.55;39.92;;;;;;;-147.65;100.00;57646.63;10444871;28;20036;-76
2023/09/19 06:44:58;;;;;;;1999.90;999.90;;;;;;;-147.65;100.00;57646.63;10468388;28;20108;-79
2023/09/19 06:49:58;;;;;;;767.22;295.08;;;;;;;-147.65;100.00;57646.63;10446959;28;20131;-78
2023/09/19 06:54:59;;;;;;;363.95;90.85;;;;;;;-147.65;100.00;57646.63;10459573;28;20032;-79
2023/09/19 07:00:01;;;;;;;8.15;3.00;;;;;;;-147.65;100.00;57646.63;10487204;28;20159;-83
2023/09/19 07:05:01;;;;;;;19.02;5.25;;;;;;;-147.65;100.00;57646.63;10464722;28;20056;-82
2023/09/19 07:10:05;;;;;;;6.28;4.43;;;;;;;-147.65;100.00;57646.63;10452806;28;20056;-83
2023/09/19 07:15:06;;;;;;;9.77;2.13;;;;;;;-147.65;100.00;57646.63;10469320;28;20151;-82
2023/09/19 07:20:07;;;;;;;11.73;4.38;;;;;;;-147.65;100.00;57646.63;10431690;28;20647;-79
2023/09/19 07:25:08;;;;;;;11.93;3.50;;;;;;;-147.65;100.00;57646.63;10447908;28;20037;-79
2023/09/19 07:30:09;;;;;;;9.38;2.85;;;;;;;-147.65;100.00;57646.63;10416723;28;20493;-81
2023/09/19 07:35:10;;;;;;;12.43;3.35;;;;;;;-147.65;100.00;57646.63;10459352;28;20041;-82
2023/09/19 07:40:11;;;;;;;18.05;4.55;;;;;;;-147.65;100.00;57646.63;10448981;28;20045;-81
2023/09/19 07:45:14;;;;;;;26.33;5.23;;;;;;;-147.65;100.00;57646.63;10440589;28;20082;-81
2023/09/19 07:50:16;;;;;;;14.38;3.70;;;;;;;-147.65;100.00;57646.63;10459560;28;20179;-82
2023/09/19 07:55:17;;;;;;;29.60;5.60;;;;;;;-147.65;100.00;57646.63;10464759;28;20502;-83
2023/09/19 08:00:17;;;;;;;14.75;3.92;;;;;;;-147.65;100.00;57646.63;10462363;28;20158;-82
2023/09/19 08:05:18;;;;;;;34.53;8.15;;;;;;;-147.65;100.00;57646.63;10459089;28;20033;-78
2023/09/19 08:10:19;;;;;;;9.93;4.53;;;;;;;-147.65;100.00;57646.63;10439659;28;20522;-78
2023/09/19 08:15:20;;;;;;;12.05;4.07;;;;;;;-147.65;100.00;57646.63;10459520;28;20037;-81
2023/09/19 08:20:21;;;;;;;466.38;56.30;;;;;;;-147.65;100.00;57646.63;10407913;28;20048;-79
2023/09/19 08:25:23;;;;;;;347.38;56.10;;;;;;;-147.65;100.00;57646.63;10391829;28;20392;-80
2023/09/19 08:30:23;;;;;;;1999.90;999.90;;;;;;;-147.65;100.00;57646.63;10446756;28;20132;-80
2023/09/19 08:35:24;;;;;;;1999.90;999.90;;;;;;;-147.65;100.00;57646.63;10441780;28;20366;-80
2023/09/19 08:40:27;;;;;;;1999.90;999.90;;;;;;;-147.65;100.00;57646.63;10458157;28;20136;-80
2023/09/19 08:45:28;;;;;;;1999.90;999.90;;;;;;;-147.65;100.00;57646.63;10465584;28;20511;-80
2023/09/19 08:50:29;;;;;;;1999.90;999.90;;;;;;;-147.65;100.00;57646.63;10439553;28;20044;-79
2023/09/19 08:55:29;;;;;;;1528.63;761.50;;;;;;;-147.65;100.00;57646.63;10446840;28;20044;-80
2023/09/19 09:00:30;;;;;;;12.45;2.83;;;;;;;-147.65;100.00;57646.63;10450102;28;20041;-76
2023/09/19 09:05:31;;;;;;;8.32;2.97;;;;;;;-147.65;100.00;57646.63;10443835;28;20099;-81
2023/09/19 09:10:31;;;;;;;13.05;3.38;;;;;;;-147.65;100.00;57646.63;10457157;28;20116;-82
2023/09/19 09:15:34;;;;;;;9.60;2.75;;;;;;;-147.65;100.00;57646.63;10464501;28;20028;-78
2023/09/19 09:20:35;;;;;;;11.40;2.75;;;;;;;-147.65;100.00;57646.63;10460776;28;20043;-78
2023/09/19 09:26:01;;;;;;;8.20;2.85;;;;;;;-147.65;100.00;57646.63;10472828;28;20542;-78
2023/09/19 09:31:08;;;;;;;8.80;2.75;;;;;;;-147.65;100.00;57646.63;10456938;28;20106;-79
2023/09/19 09:36:10;;;;;;;11.00;3.00;;;;;;;-147.65;100.00;57646.63;10462834;28;20045;-80
2023/09/19 09:41:15;;;;;;;18.17;3.67;;;;;;;-147.65;100.00;57646.63;10464685;28;20068;-79
2023/09/19 09:51:30;;;;;;;16.02;4.43;;;;;;;-147.65;100.00;57646.63;10416243;28;20057;-79
2023/09/19 09:56:34;;;;;;;9.23;2.55;;;;;;;-147.65;100.00;57646.63;10416501;28;20485;-80
2023/09/19 10:01:50;;;;;;;17.63;4.05;;;;;;;-147.65;100.00;57646.63;10458568;28;20055;-77
2023/09/19 10:06:51;;;;;;;16.40;4.55;;;;;;;-147.65;100.00;57646.63;10443916;28;20485;-76
2023/09/19 10:12:05;;;;;;;16.88;5.35;;;;;;;-147.65;100.00;57646.63;10453048;28;20109;-77
2023/09/19 10:17:06;;;;;;;11.88;2.90;;;;;;;-147.65;100.00;57646.63;10415344;28;20044;-76
2023/09/19 10:22:08;;;;;;;7.15;3.13;;;;;;;-147.65;100.00;57646.63;10438405;28;20045;-77
2023/09/19 10:27:09;;;;;;;10.60;2.33;;;;;;;-147.65;100.00;57646.63;10433472;28;20196;-75
2023/09/19 10:32:09;;;;;;;12.43;3.90;;;;;;;-147.65;100.00;57646.63;10452370;28;20045;-79
2023/09/19 10:37:11;;;;;;;5.83;2.47;;;;;;;-147.65;100.00;57646.63;10454868;28;20084;-81
2023/09/19 10:42:18;;;;;;;1999.90;999.90;;;;;;;-147.65;100.00;57646.63;10447417;28;20557;-77
2023/09/19 10:47:20;;;;;;;1999.90;999.90;;;;;;;-147.65;100.00;57646.63;10458926;28;20516;-77
2023/09/19 10:52:23;;;;;;;1999.90;999.90;;;;;;;-147.65;100.00;57646.63;10431481;28;20044;-77
2023/09/19 10:57:24;;;;;;;1999.90;999.90;;;;;;;-147.65;100.00;57646.63;10434090;28;20095;-78
2023/09/19 11:02:24;;;;;;;224.48;112.53;;;;;;;-147.65;100.00;57646.63;10472247;28;20055;-76
2023/09/19 11:07:25;;;;;;;1999.90;999.90;;;;;;;-147.65;100.00;57646.63;10452526;28;20732;-77
2023/09/19 11:12:26;;;;;;;1999.90;999.90;;;;;;;-147.65;100.00;57646.63;10491038;28;20052;-78
2023/09/19 11:17:45;;;;;;;1999.90;999.90;;;;;;;-147.65;100.00;57646.63;10462040;28;20107;-79
2023/09/19 11:22:53;;;;;;;135.32;130.43;;;;;;;-147.65;100.00;57646.63;10456861;28;20036;-77
2023/09/19 11:28:05;;;;;;;144.27;56.20;;;;;;;-147.65;100.00;57646.63;10448495;28;20061;-76
2023/09/19 11:33:28;;;;;;;220.82;82.72;;;;;;;-147.65;100.00;57646.63;10446026;28;20075;-77
2023/09/19 11:38:53;;;;;;;9.95;2.40;;;;;;;-147.65;100.00;57646.63;10471772;28;20976;-76
2023/09/19 11:44:00;;;;;;;7.10;2.60;;;;;;;-147.65;100.00;57646.63;10480133;28;20069;-78
2023/09/19 11:49:09;;;;;;;7.43;2.65;;;;;;;-147.65;100.00;57646.63;10447655;28;20039;-77
2023/09/19 11:54:15;;;;;;;10.05;3.00;;;;;;;-147.65;100.00;57646.63;10477812;28;20128;-76
2023/09/19 11:59:22;;;;;;;9.85;3.17;;;;;;;-147.65;100.00;57646.63;10496787;28;20079;-77
2023/09/19 12:04:45;;;;;;;10.07;3.33;;;;;;;-147.65;100.00;57646.63;10497775;28;20064;-77
2023/09/19 12:09:47;;;;;;;7.00;2.35;;;;;;;-147.65;100.00;57646.63;10405919;28;20049;-77
2023/09/19 12:14:48;;;;;;;8.13;2.78;;;;;;;-147.65;100.00;57646.63;10449622;28;20447;-79
2023/09/19 12:19:56;;;;;;;13.50;3.33;;;;;;;-147.65;100.00;57646.63;10484879;28;20480;-80
2023/09/19 12:25:05;;;;;;;6.20;1.65;;;;;;;-147.65;100.00;57646.63;10500986;28;20123;-78
2023/09/19 12:30:08;;;;;;;4.65;1.50;;;;;;;-147.65;100.00;57646.63;10473699;28;20105;-82
2023/09/19 12:35:10;;;;;;;5.38;1.52;;;;;;;-147.65;100.00;57646.63;10417090;28;20049;-78
2023/09/19 12:40:18;;;;;;;6.63;2.95;;;;;;;-147.65;100.00;57646.63;10456255;28;20102;-78
2023/09/19 12:45:21;;;;;;;7.43;2.35;;;;;;;-147.65;100.00;57646.63;10419463;28;20037;-78
2023/09/19 12:50:29;;;;;;;3.47;1.48;;;;;;;-147.65;100.00;57646.63;10428855;28;20043;-76
2023/09/19 12:55:32;;;;;;;4.88;1.92;;;;;;;-147.65;100.00;57646.63;10461766;28;20036;-78
2023/09/19 13:00:41;;;;;;;7.43;1.45;;;;;;;-147.65;100.00;57646.63;10441266;28;20496;-78
2023/09/19 13:05:52;;;;;;;3.72;1.33;;;;;;;-147.65;100.00;57646.63;10464588;28;20036;-76
2023/09/19 13:11:07;;;;;;;3.85;1.63;;;;;;;-147.65;100.00;57646.63;10427637;28;20032;-75
2023/09/19 13:16:08;;;;;;;6.47;1.10;;;;;;;-147.65;100.00;57646.63;10451432;28;20045;-74
2023/09/19 13:21:15;;;;;;;3.83;1.58;;;;;;;-147.65;100.00;57646.63;10432754;28;20118;-76
2023/09/19 13:26:15;;;;;;;2.30;0.70;;;;;;;-147.65;100.00;57646.63;10411610;28;20037;-77
2023/09/19 13:31:16;;;;;;;6.13;1.05;;;;;;;-147.65;100.00;57646.63;10447638;28;20489;-78
2023/09/19 13:36:18;;;;;;;7.22;1.65;;;;;;;-147.65;100.00;57646.63;10464558;28;20059;-79
2023/09/19 13:41:19;;;;;;;3.08;0.77;;;;;;;-147.65;100.00;57646.63;10451841;28;20657;-78
2023/09/19 13:46:25;;;;;;;4.03;1.92;;;;;;;-147.65;100.00;57646.63;10416373;28;20163;-77
2023/09/19 13:51:26;;;;;;;3.83;1.23;;;;;;;-147.65;100.00;57646.63;10455827;28;20705;-81
2023/09/19 13:56:31;;;;;;;2.53;0.80;;;;;;;-147.65;100.00;57646.63;10457060;28;20052;-81
2023/09/19 14:01:31;;;;;;;5.20;1.23;;;;;;;-147.65;100.00;57646.63;10439531;28;20053;-81
2023/09/19 14:06:33;;;;;;;5.07;1.05;;;;;;;-147.65;100.00;57646.63;10447622;28;20037;-78
2023/09/19 14:11:33;;;;;;;6.45;1.65;;;;;;;-147.65;100.00;57646.63;10466931;28;20484;-80
2023/09/19 14:16:34;;;;;;;2.65;1.20;;;;;;;-147.65;100.00;57646.63;10455804;28;20075;-79
2023/09/19 14:21:36;;;;;;;6.30;1.80;;;;;;;-147.65;100.00;57646.63;10426755;28;20549;-79
2023/09/19 14:26:36;;;;;;;2.47;1.02;;;;;;;-147.65;100.00;57646.63;10384064;28;20042;-79
2023/09/19 14:31:39;;;;;;;2.33;1.00;;;;;;;-147.65;100.00;57646.63;10434492;28;20033;-81
2023/09/19 14:36:40;;;;;;;10.35;1.75;;;;;;;-147.65;100.00;57646.63;10449082;28;20037;-81
2023/09/19 14:41:40;;;;;;;3.58;1.10;;;;;;;-147.65;100.00;57646.63;10447622;28;20564;-80
2023/09/19 14:46:41;;;;;;;5.00;1.23;;;;;;;-147.65;100.00;57646.63;10457569;28;20041;-78
2023/09/19 14:51:44;;;;;;;4.47;1.65;;;;;;;-147.65;100.00;57646.63;10427574;28;20055;-79
2023/09/19 14:56:44;;;;;;;3.60;1.30;;;;;;;-147.65;100.00;57646.63;10399811;28;20061;-80
2023/09/19 15:01:45;;;;;;;4.03;1.73;;;;;;;-147.65;100.00;57646.63;10447302;28;20033;-80
2023/09/19 15:06:46;;;;;;;3.47;1.65;;;;;;;-147.65;100.00;57646.63;10435949;28;20053;-80
2023/09/19 15:11:46;;;;;;;2.25;1.15;;;;;;;-147.65;100.00;57646.63;10453500;28;20041;-81
2023/09/19 15:16:48;;;;;;;2.08;0.90;;;;;;;-147.65;100.00;57646.63;10460352;28;20041;-79
2023/09/19 15:21:48;;;;;;;2.33;1.00;;;;;;;-147.65;100.00;57646.63;10417149;28;20055;-78
2023/09/19 15:26:50;;;;;;;14.57;1.55;;;;;;;-147.65;100.00;57646.63;10435054;28;20053;-76
2023/09/19 15:31:51;;;;;;;;;;;;;;;-147.65;100.00;57646.63;10458719;28;20123;-77
2023/09/19 15:36:51;;;;;;;6.65;1.17;;;;;;;-147.65;100.00;57646.63;10466133;28;20493;-81
2023/09/19 15:41:54;;;;;;;6.10;1.98;;;;;;;-147.65;100.00;57646.63;10413133;28;20492;-77
2023/09/19 15:46:55;;;;;;;5.40;1.40;;;;;;;-147.65;100.00;57646.63;10406347;28;20124;-82
2023/09/19 15:51:55;;;;;;;5.75;1.42;;;;;;;-147.65;100.00;57646.63;10440190;28;20037;-78
2023/09/19 15:56:56;;;;;;;3.75;1.73;;;;;;;-147.65;100.00;57646.63;10443642;28;20102;-78
2023/09/19 16:01:57;;;;;;;9.38;3.22;;;;;;;-147.65;100.00;57646.63;10464556;28;20043;-76
2023/09/19 16:06:59;;;;;;;4.10;2.60;;;;;;;-147.65;100.00;57646.63;10446021;28;20045;-76
2023/09/19 16:11:59;;;;;;;4.70;1.77;;;;;;;-147.65;100.00;57646.63;10445804;28;20044;-78
2023/09/19 16:17:02;;;;;;;3.63;1.35;;;;;;;-147.65;100.00;57646.63;10431913;28;20556;-75
2023/09/19 16:22:02;;;;;;;2.80;1.52;;;;;;;-147.65;100.00;57646.63;10441809;28;20037;-75
2023/09/19 16:27:04;;;;;;;5.20;1.13;;;;;;;-147.65;100.00;57646.63;10453685;28;20489;-77
2023/09/19 16:32:04;;;;;;;4.87;1.83;;;;;;;-147.65;100.00;57646.63;10445615;28;20128;-77
2023/09/19 16:37:05;;;;;;;8.35;2.15;;;;;;;-147.65;100.00;57646.63;10441153;28;20095;-76
2023/09/19 16:42:05;;;;;;;5.10;1.98;;;;;;;-147.65;100.00;57646.63;10441896;28;20123;-79
2023/09/19 16:47:06;;;;;;;8.57;1.77;;;;;;;-147.65;100.00;57646.63;10457530;28;20432;-76
2023/09/19 16:52:06;;;;;;;11.35;1.58;;;;;;;-147.65;100.00;57646.63;10433025;28;20099;-77
2023/09/19 16:57:07;;;;;;;3.53;1.48;;;;;;;-147.65;100.00;57646.63;10458970;28;20513;-75
2023/09/19 17:02:08;;;;;;;8.88;1.90;;;;;;;-147.65;100.00;57646.63;10464162;28;20044;-77
2023/09/19 17:07:09;;;;;;;4.22;1.38;;;;;;;-147.65;100.00;57646.63;10444639;28;20048;-75
2023/09/19 17:12:13;;;;;;;7.40;2.17;;;;;;;-147.65;100.00;57646.63;10454598;28;20413;-78
2023/09/19 17:17:13;;;;;;;19.13;2.10;;;;;;;-147.65;100.00;57646.63;10463755;28;20286;-77
2023/09/19 17:22:14;;;;;;;8.93;1.58;;;;;;;-147.65;100.00;57646.63;10447958;28;20037;-75
2023/09/19 17:27:14;;;;;;;6.00;1.42;;;;;;;-147.65;100.00;57646.63;10459764;28;20187;-78
2023/09/19 17:32:15;;;;;;;6.32;3.65;;;;;;;-147.65;100.00;57646.63;10449694;28;20565;-76
2023/09/19 17:37:16;;;;;;;6.43;1.50;;;;;;;-147.65;100.00;57646.63;10452569;28;20102;-77
2023/09/19 17:42:16;;;;;;;5.47;1.65;;;;;;;-147.65;100.00;57646.63;10446644;28;20128;-78
2023/09/19 17:47:17;;;;;;;6.53;1.42;;;;;;;-147.65;100.00;57646.63;10446852;28;20102;-79
2023/09/19 17:52:18;;;;;;;3.35;1.35;;;;;;;-147.65;100.00;57646.63;10466054;28;20048;-77
2023/09/19 17:57:19;;;;;;;7.82;1.73;;;;;;;-147.65;100.00;57646.63;10422594;28;20662;-77
2023/09/19 18:02:20;;;;;;;6.43;2.40;;;;;;;-147.65;100.00;57646.63;10457505;28;20048;-77
2023/09/19 18:07:21;;;;;;;3.70;1.58;;;;;;;-147.65;100.00;57646.63;10427818;28;20052;-76
2023/09/19 18:12:21;;;;;;;12.13;2.20;;;;;;;-147.65;100.00;57646.63;10445793;28;20044;-77
2023/09/19 18:17:22;;;;;;;11.70;1.60;;;;;;;-147.65;100.00;57646.63;10419248;28;20446;-75
2023/09/19 18:22:22;;;;;;;4.03;1.60;;;;;;;-147.65;100.00;57646.63;10446861;28;20037;-78
2023/09/19 18:27:23;;;;;;;4.40;1.30;;;;;;;-147.65;100.00;57646.63;10417343;28;20623;-76
2023/09/19 18:32:24;;;;;;;412.58;375.00;;;;;;;-147.65;100.00;57646.63;10437065;28;20049;-77
2023/09/19 18:37:28;;;;;;;2.40;0.80;;;;;;;-147.65;100.00;57646.63;10432656;28;20099;-77
2023/09/19 18:42:29;;;;;;;5.28;1.40;;;;;;;-147.65;100.00;57646.63;10446246;28;20037;-77
2023/09/19 18:47:29;;;;;;;5.05;1.45;;;;;;;-147.65;100.00;57646.63;10434537;28;20537;-77
2023/09/19 18:52:31;;;;;;;5.72;1.77;;;;;;;-147.65;100.00;57646.63;10440366;28;20434;-77
2023/09/19 18:57:31;;;;;;;6.72;2.65;;;;;;;-147.65;100.00;57646.63;10441431;28;20447;-76
2023/09/19 19:02:32;;;;;;;5.28;1.20;;;;;;;-147.65;100.00;57646.63;10409418;28;20060;-77
2023/09/19 19:07:35;;;;;;;4.78;2.33;;;;;;;-147.65;100.00;57646.63;10445875;28;20033;-76
2023/09/19 19:12:35;;;;;;;5.15;1.63;;;;;;;-147.65;100.00;57646.63;10462166;28;20044;-77
2023/09/19 19:17:37;;;;;;;6.00;1.27;;;;;;;-147.65;100.00;57646.63;10419930;28;20033;-77
2023/09/19 19:22:37;;;;;;;11.50;1.63;;;;;;;-147.65;100.00;57646.63;10406748;28;20497;-78
2023/09/19 19:27:38;;;;;;;3.55;1.45;;;;;;;-147.65;100.00;57646.63;10389797;28;20034;-78
2023/09/19 19:32:38;;;;;;;8.45;2.30;;;;;;;-147.65;100.00;57646.63;10407744;28;20061;-78
2023/09/19 19:37:39;;;;;;;4.53;1.13;;;;;;;-147.65;100.00;57646.63;10451521;28;20059;-78
2023/09/19 19:42:39;;;;;;;5.55;1.30;;;;;;;-147.65;100.00;57646.63;10429518;28;20040;-75
2023/09/19 19:47:40;;;;;;;14.98;2.67;;;;;;;-147.65;100.00;57646.63;10448419;28;20041;-78
2023/09/19 19:52:41;;;;;;;7.13;1.30;;;;;;;-147.65;100.00;57646.63;10450736;28;20124;-79
2023/09/19 19:57:41;;;;;;;10.38;3.95;;;;;;;-147.65;100.00;57646.63;10467890;28;20171;-79
2023/09/19 20:02:43;;;;;;;5.50;1.42;;;;;;;-147.65;100.00;57646.63;10489351;28;20040;-77
2023/09/19 20:07:45;;;;;;;;;;;;;;;-147.65;100.00;57646.63;10447256;28;20048;-78
2023/09/19 20:12:47;;;;;;;6.45;1.38;;;;;;;-147.65;100.00;57646.63;10439570;28;20284;-78
2023/09/19 20:17:49;;;;;;;2.85;1.05;;;;;;;-147.65;100.00;57646.63;10483987;28;20040;-75
2023/09/19 20:22:50;;;;;;;5.32;1.52;;;;;;;-147.65;100.00;57646.63;10488469;28;20040;-76
2023/09/19 20:27:50;;;;;;;7.78;2.00;;;;;;;-147.65;100.00;57646.63;10438675;28;20120;-78
2023/09/19 20:32:51;;;;;;;4.38;1.45;;;;;;;-147.65;100.00;57646.63;10438213;28;20120;-77
2023/09/19 20:37:52;;;;;;;3.35;1.33;;;;;;;-147.65;100.00;57646.63;10517286;28;20044;-77
2023/09/19 20:42:54;;;;;;;9.40;2.78;;;;;;;-147.65;100.00;57646.63;10487671;28;20059;-77
2023/09/19 20:47:54;;;;;;;3.03;1.70;;;;;;;-147.65;100.00;57646.63;10438541;28;20042;-76
2023/09/19 20:52:55;;;;;;;5.80;2.15;;;;;;;-147.65;100.00;57646.63;10382313;28;20124;-76
2023/09/19 20:57:55;;;;;;;7.43;1.67;;;;;;;-147.65;100.00;57646.63;10402416;28;20045;-76
2023/09/19 21:02:56;;;;;;;2.90;1.35;;;;;;;-147.65;100.00;57646.63;10424162;28;20447;-75
2023/09/19 21:07:56;;;;;;;11.70;2.38;;;;;;;-147.65;100.00;57646.63;10427153;28;20038;-76
2023/09/19 21:12:57;;;;;;;5.65;3.20;;;;;;;-147.65;100.00;57646.63;10465571;28;20095;-76
2023/09/19 21:17:58;;;;;;;4.13;1.80;;;;;;;-147.65;100.00;57646.63;10483966;28;20059;-78
2023/09/19 21:22:58;;;;;;;6.90;1.55;;;;;;;-147.65;100.00;57646.63;10429728;28;20125;-76
2023/09/19 21:27:59;;;;;;;6.97;2.72;;;;;;;-147.65;100.00;57646.63;10440049;28;20063;-76
2023/09/19 21:32:59;;;;;;;8.38;2.17;;;;;;;-147.65;100.00;57646.63;10443092;28;20068;-76
2023/09/19 21:38:00;;;;;;;5.57;1.80;;;;;;;-147.65;100.00;57646.63;10433070;28;20435;-76
2023/09/19 21:43:02;;;;;;;4.10;1.48;;;;;;;-147.65;100.00;57646.63;10418811;28;20045;-78
2023/09/19 21:48:03;;;;;;;8.45;1.88;;;;;;;-147.65;100.00;57646.63;10491441;28;20067;-78
2023/09/19 21:53:04;;;;;;;6.47;1.80;;;;;;;-147.65;100.00;57646.63;10483737;28;20548;-78
2023/09/19 21:58:04;;;;;;;5.03;1.98;;;;;;;-147.65;100.00;57646.63;10416994;28;20441;-78
2023/09/19 22:03:08;;;;;;;8.75;1.92;;;;;;;-147.65;100.00;57646.63;10452272;28;20175;-78
2023/09/19 22:08:09;;;;;;;7.13;1.67;;;;;;;-147.65;100.00;57646.63;10435208;28;20045;-78
2023/09/19 22:13:10;;;;;;;8.98;3.60;;;;;;;-147.65;100.00;57646.63;10417791;28;20049;-77
2023/09/19 22:18:20;;;;;;;5.93;2.17;;;;;;;-147.65;100.00;57646.63;10459432;28;20041;-79
2023/09/19 22:23:35;;;;;;;4.72;2.75;;;;;;;-147.65;100.00;57646.63;10483919;28;20040;-78
2023/09/19 22:28:36;;;;;;;8.07;2.88;;;;;;;-147.65;100.00;57646.63;10466765;28;20502;-78
2023/09/19 22:33:37;;;;;;;6.68;2.25;;;;;;;-147.65;100.00;57646.63;10434283;28;20037;-78